Time;durP1;ratioP1;P1;durP2;ratioP2;P2;SDS_P1;SDS_P2;PMS_P1;PMS_P2;Temp;Humidity;BMP_temperature;BMP_pressure;BME280_temperature;BME280_humidity;BME280_pressure;Samples;Min_cycle;Max_cycle;Signal;HPM_P1;HPM_P2
2023/05/11 00:03:17;;;;;;;4.45;3.00;;;15.60;99.80;;;;;;10446082;28;20021;-64
2023/05/11 00:08:18;;;;;;;3.53;2.42;;;15.50;99.80;;;;;;10442609;28;20385;-64
2023/05/11 00:13:20;;;;;;;4.53;2.65;;;15.50;99.80;;;;;;10459073;28;20029;-64
2023/05/11 00:18:20;;;;;;;3.70;2.40;;;15.50;99.80;;;;;;10452488;28;20086;-64
2023/05/11 00:23:21;;;;;;;4.60;2.50;;;15.50;99.80;;;;;;10440811;28;20028;-64
2023/05/11 00:28:22;;;;;;;3.80;2.60;;;15.40;99.80;;;;;;10436514;28;20030;-64
2023/05/11 00:33:23;;;;;;;3.00;2.42;;;15.50;99.80;;;;;;10452864;28;20018;-64
2023/05/11 00:38:23;;;;;;;3.33;2.10;;;15.50;99.80;;;;;;10456307;28;20021;-63
2023/05/11 00:43:24;;;;;;;3.20;2.40;;;15.50;99.80;;;;;;10436304;28;20408;-64
2023/05/11 00:48:25;;;;;;;2.95;2.08;;;15.40;99.80;;;;;;10439785;28;20435;-64
2023/05/11 00:53:26;;;;;;;2.95;2.38;;;15.40;99.70;;;;;;10451021;28;20009;-64
2023/05/11 00:58:26;;;;;;;3.08;2.10;;;15.50;99.80;;;;;;10445967;28;20104;-64
2023/05/11 01:03:28;;;;;;;3.00;2.45;;;15.40;99.70;;;;;;10442799;28;20032;-64
2023/05/11 01:08:41;;;;;;;6.38;2.55;;;15.40;99.70;;;;;;10459543;28;20017;-63
2023/05/11 01:13:49;;;;;;;3.65;2.53;;;15.40;99.70;;;;;;10439066;28;20570;-64
2023/05/11 01:18:57;;;;;;;3.92;2.63;;;15.40;99.70;;;;;;10445270;28;20489;-64
2023/05/11 01:24:13;;;;;;;3.70;2.63;;;15.40;99.70;;;;;;10439884;28;20123;-64
2023/05/11 01:29:34;;;;;;;2.88;2.28;;;15.40;99.70;;;;;;10440380;28;20115;-64
2023/05/11 01:34:38;;;;;;;3.95;2.45;;;15.40;99.70;;;;;;10446652;28;20119;-64
2023/05/11 01:39:50;;;;;;;3.17;2.40;;;15.40;99.70;;;;;;10443849;28;20028;-64
2023/05/11 01:44:54;;;;;;;3.65;2.58;;;15.40;99.70;;;;;;10441711;28;20021;-64
2023/05/11 01:49:57;;;;;;;3.50;2.40;;;15.40;99.70;;;;;;10448804;28;20330;-64
2023/05/11 01:55:00;;;;;;;3.22;2.33;;;15.30;99.70;;;;;;10455219;28;20021;-64
2023/05/11 02:00:02;;;;;;;3.90;2.50;;;15.40;99.70;;;;;;10454559;28;20024;-64
2023/05/11 02:05:05;;;;;;;3.20;2.17;;;15.30;99.70;;;;;;10440501;28;20481;-64
2023/05/11 02:10:06;;;;;;;3.33;2.40;;;15.30;99.70;;;;;;10448966;28;20039;-64
2023/05/11 02:15:09;;;;;;;4.18;2.38;;;15.30;99.90;;;;;;10445998;28;20021;-64
2023/05/11 02:20:12;;;;;;;3.60;2.70;;;15.30;99.70;;;;;;10432684;28;20492;-64
2023/05/11 02:25:14;;;;;;;3.47;2.70;;;15.30;99.70;;;;;;10441556;28;20171;-64
2023/05/11 02:30:15;;;;;;;3.53;2.35;;;15.30;99.70;;;;;;10448420;28;20040;-64
2023/05/11 02:35:38;;;;;;;4.18;2.40;;;15.30;99.70;;;;;;10456869;28;20029;-64
2023/05/11 02:40:45;;;;;;;3.35;2.40;;;15.30;99.70;;;;;;10446764;28;20013;-64
2023/05/11 02:45:49;;;;;;;3.33;2.20;;;15.30;99.70;;;;;;10437060;28;20021;-64
2023/05/11 02:50:52;;;;;;;3.38;2.50;;;15.30;99.70;;;;;;10451232;28;20020;-64
2023/05/11 02:55:56;;;;;;;3.90;2.50;;;15.30;99.70;;;;;;10447263;28;20025;-64
2023/05/11 03:00:58;;;;;;;4.43;2.33;;;15.30;99.70;;;;;;10441757;28;20166;-64
2023/05/11 03:05:59;;;;;;;3.45;2.35;;;15.30;99.70;;;;;;10447086;28;20523;-64
2023/05/11 03:11:01;;;;;;;5.15;2.42;;;15.20;99.60;;;;;;10456325;28;20025;-64
2023/05/11 03:16:02;;;;;;;4.38;2.40;;;15.20;99.60;;;;;;10448421;28;20327;-64
2023/05/11 03:21:04;;;;;;;3.55;2.35;;;15.20;99.60;;;;;;10449902;28;20074;-64
2023/05/11 03:26:06;;;;;;;3.47;2.58;;;15.20;99.60;;;;;;10445098;28;20025;-64
2023/05/11 03:31:09;;;;;;;3.45;2.08;;;15.20;99.70;;;;;;10436443;28;20095;-64
2023/05/11 03:36:11;;;;;;;3.95;2.50;;;15.20;99.60;;;;;;10447334;28;20029;-64
2023/05/11 03:41:16;;;;;;;3.53;2.53;;;15.20;99.60;;;;;;10449450;28;20049;-64
2023/05/11 03:46:19;;;;;;;5.03;2.67;;;15.20;99.60;;;;;;10437596;28;20086;-64
2023/05/11 03:51:20;;;;;;;3.67;2.40;;;15.20;99.60;;;;;;10443932;28;20052;-64
2023/05/11 03:56:21;;;;;;;4.25;2.70;;;15.10;99.60;;;;;;10446800;28;20100;-64
2023/05/11 04:01:22;;;;;;;3.20;2.22;;;15.20;99.60;;;;;;10442659;28;20028;-64
2023/05/11 04:06:23;;;;;;;4.13;2.67;;;15.10;99.60;;;;;;10453216;28;20116;-64
2023/05/11 04:11:24;;;;;;;3.47;2.53;;;15.10;99.60;;;;;;10450055;28;20033;-64
2023/05/11 04:16:25;;;;;;;3.28;2.38;;;15.10;99.60;;;;;;10438585;28;20505;-63
2023/05/11 04:21:26;;;;;;;4.15;2.60;;;15.20;99.60;;;;;;10456824;28;20041;-63
2023/05/11 04:26:26;;;;;;;3.63;2.38;;;15.10;99.60;;;;;;10441196;28;20032;-63
2023/05/11 04:31:29;;;;;;;3.80;2.45;;;15.10;99.60;;;;;;10454593;28;20048;-63
2023/05/11 04:36:30;;;;;;;4.03;2.75;;;15.10;99.60;;;;;;10461596;28;20264;-62
2023/05/11 04:41:30;;;;;;;4.15;2.55;;;15.10;99.60;;;;;;10439209;28;20392;-63
2023/05/11 04:46:31;;;;;;;3.92;2.90;;;15.10;99.60;;;;;;10444418;28;20022;-63
2023/05/11 04:51:32;;;;;;;3.83;2.63;;;15.20;99.60;;;;;;10443782;28;20035;-63
2023/05/11 04:56:32;;;;;;;4.05;2.65;;;15.10;99.60;;;;;;10444927;28;20584;-63
2023/05/11 05:01:33;;;;;;;3.97;2.58;;;15.10;99.60;;;;;;10448310;28;20112;-63
2023/05/11 05:06:33;;;;;;;3.60;2.47;;;15.10;99.60;;;;;;10449765;28;20021;-63
2023/05/11 05:11:34;;;;;;;3.90;2.40;;;15.10;99.60;;;;;;10442429;28;20488;-62
2023/05/11 05:16:34;;;;;;;3.42;2.28;;;15.10;99.60;;;;;;10446003;28;20053;-62
2023/05/11 05:21:35;;;;;;;5.10;2.92;;;15.10;99.60;;;;;;10438371;28;20496;-63
2023/05/11 05:26:36;;;;;;;4.15;2.92;;;15.20;99.60;;;;;;10455613;28;20400;-63
2023/05/11 05:31:37;;;;;;;4.32;2.80;;;15.10;99.60;;;;;;10451122;28;20016;-63
2023/05/11 05:36:38;;;;;;;5.43;2.78;;;15.00;99.60;;;;;;10456552;28;20024;-63
2023/05/11 05:41:40;;;;;;;4.22;3.00;;;15.10;99.60;;;;;;10452894;28;20017;-63
2023/05/11 05:46:41;;;;;;;3.40;2.22;;;15.00;99.60;;;;;;10426966;28;20037;-63
2023/05/11 05:51:42;;;;;;;3.45;2.30;;;15.00;99.60;;;;;;10442038;28;20492;-63
2023/05/11 05:56:43;;;;;;;4.22;2.75;;;15.00;99.60;;;;;;10433477;28;20036;-62
2023/05/11 06:01:46;;;;;;;3.83;2.63;;;15.00;99.60;;;;;;10441035;28;20033;-62
2023/05/11 06:06:46;;;;;;;5.13;2.95;;;15.00;99.60;;;;;;10446716;28;20047;-62
2023/05/11 06:11:47;;;;;;;4.75;2.50;;;15.00;99.60;;;;;;10450557;28;20501;-63
2023/05/11 06:16:48;;;;;;;4.15;2.70;;;15.00;99.60;;;;;;10445059;28;20036;-62
2023/05/11 06:21:49;;;;;;;5.15;2.60;;;15.00;99.60;;;;;;10433275;28;20030;-63
2023/05/11 06:26:49;;;;;;;4.05;2.70;;;15.00;99.60;;;;;;10443241;28;20025;-63
2023/05/11 06:31:51;;;;;;;3.28;2.33;;;15.00;99.60;;;;;;10439032;28;20036;-62
2023/05/11 06:36:52;;;;;;;4.10;2.63;;;15.00;99.60;;;;;;10442916;28;20013;-65
2023/05/11 06:41:52;;;;;;;5.05;2.58;;;15.00;99.60;;;;;;10448030;28;20027;-65
2023/05/11 06:46:53;;;;;;;2.80;2.05;;;15.00;99.60;;;;;;10429488;28;20032;-65
2023/05/11 06:51:54;;;;;;;4.43;2.33;;;14.90;99.60;;;;;;10449563;28;20029;-63
2023/05/11 06:56:54;;;;;;;2.63;1.80;;;14.90;99.60;;;;;;10442075;28;20017;-62
2023/05/11 07:01:55;;;;;;;3.13;1.83;;;15.00;99.70;;;;;;10432193;28;20017;-69
2023/05/11 07:06:56;;;;;;;7.20;2.05;;;15.00;99.80;;;;;;10424480;28;20025;-62
2023/05/11 07:11:56;;;;;;;6.25;2.42;;;14.90;99.80;;;;;;10431540;28;20021;-63
2023/05/11 07:16:57;;;;;;;6.43;2.08;;;14.90;99.80;;;;;;10430861;28;20037;-62
2023/05/11 07:21:58;;;;;;;5.43;2.30;;;14.90;99.80;;;;;;10426833;28;20470;-62
2023/05/11 07:26:59;;;;;;;5.05;2.50;;;14.90;99.80;;;;;;10436779;28;20051;-62
2023/05/11 07:32:00;;;;;;;3.97;1.90;;;14.90;99.80;;;;;;10439511;28;20060;-62
2023/05/11 07:37:00;;;;;;;3.22;2.05;;;15.00;99.80;;;;;;10432625;28;20018;-62
2023/05/11 07:42:01;;;;;;;3.80;1.67;;;15.00;99.80;;;;;;10428809;28;20033;-63
2023/05/11 07:47:02;;;;;;;6.13;1.75;;;15.00;99.70;;;;;;10422939;28;20032;-62
2023/05/11 07:52:02;;;;;;;3.53;1.83;;;15.10;99.70;;;;;;10426317;28;20109;-63
2023/05/11 07:57:04;;;;;;;3.85;1.73;;;15.00;99.70;;;;;;10428020;28;20134;-62
2023/05/11 08:02:06;;;;;;;5.03;1.70;;;15.10;99.60;;;;;;10437743;28;20024;-63
2023/05/11 08:07:07;;;;;;;5.55;1.40;;;15.10;99.60;;;;;;10431735;28;20028;-62
2023/05/11 08:12:08;;;;;;;5.10;1.80;;;15.10;99.50;;;;;;10442513;28;20033;-63
2023/05/11 08:17:09;;;;;;;3.45;1.65;;;15.30;99.60;;;;;;10434447;28;20028;-63
2023/05/11 08:22:10;;;;;;;2.70;1.50;;;15.20;99.50;;;;;;10437559;28;20029;-62
2023/05/11 08:27:10;;;;;;;4.05;1.60;;;15.30;99.50;;;;;;10443922;28;20028;-63
2023/05/11 08:32:11;;;;;;;2.72;1.20;;;15.30;99.40;;;;;;10433242;28;20067;-63
2023/05/11 08:37:12;;;;;;;2.00;1.20;;;15.30;99.40;;;;;;10432061;28;20098;-62
2023/05/11 08:42:15;;;;;;;2.58;1.30;;;15.30;99.40;;;;;;10441550;28;20488;-63
2023/05/11 08:47:16;;;;;;;1.92;1.30;;;15.40;99.40;;;;;;10434863;28;20350;-63
2023/05/11 08:52:18;;;;;;;2.13;1.30;;;15.40;99.40;;;;;;10434590;28;20162;-63
2023/05/11 08:57:19;;;;;;;3.33;1.80;;;15.40;99.30;;;;;;10442058;28;20104;-63
2023/05/11 09:02:20;;;;;;;1.65;1.00;;;15.40;99.30;;;;;;10439420;28;20029;-63
2023/05/11 09:07:23;;;;;;;3.25;1.30;;;15.50;99.30;;;;;;10437106;28;20336;-63
2023/05/11 09:12:27;;;;;;;1.95;1.30;;;15.60;99.20;;;;;;10436510;28;20050;-63
2023/05/11 09:17:27;;;;;;;3.25;1.05;;;15.60;99.10;;;;;;10434547;28;20049;-63
2023/05/11 09:22:30;;;;;;;1.35;1.10;;;15.70;99.10;;;;;;10429949;28;20120;-63
2023/05/11 09:27:31;;;;;;;1.52;1.05;;;15.70;99.00;;;;;;10430514;28;20076;-63
2023/05/11 09:32:52;;;;;;;1.50;0.77;;;15.80;99.00;;;;;;10440904;28;20032;-63
2023/05/11 09:38:10;;;;;;;1.20;0.70;;;15.80;99.00;;;;;;10433222;28;20443;-66
2023/05/11 09:43:16;;;;;;;1.70;0.90;;;15.90;98.90;;;;;;10436640;28;20037;-64
2023/05/11 09:48:20;;;;;;;1.77;0.88;;;15.90;99.20;;;;;;10430360;28;20040;-62
2023/05/11 09:53:41;;;;;;;3.13;1.20;;;15.90;99.00;;;;;;10430147;28;20043;-62
2023/05/11 09:58:46;;;;;;;4.47;1.45;;;16.00;99.10;;;;;;10433907;28;20036;-63
2023/05/11 10:03:52;;;;;;;2.00;1.30;;;16.00;99.00;;;;;;10436076;28;20037;-62
2023/05/11 10:08:53;;;;;;;2.33;1.23;;;16.10;99.20;;;;;;10437596;28;20118;-63
2023/05/11 10:13:54;;;;;;;1.75;1.00;;;16.20;99.10;;;;;;10434513;28;20410;-62
2023/05/11 10:18:56;;;;;;;3.33;1.17;;;16.20;99.10;;;;;;10429683;28;20026;-64
2023/05/11 10:23:57;;;;;;;1.60;1.13;;;16.30;99.10;;;;;;10430648;28;20167;-63
2023/05/11 10:29:01;;;;;;;1.48;1.00;;;16.30;99.10;;;;;;10433782;28;20024;-63
2023/05/11 10:34:03;;;;;;;2.08;1.10;;;16.40;99.10;;;;;;10433347;28;20059;-63
2023/05/11 10:39:03;;;;;;;1.73;1.00;;;16.40;99.10;;;;;;10434063;28;20073;-63
2023/05/11 10:44:31;;;;;;;2.22;1.30;;;16.40;99.10;;;;;;10441073;28;20029;-63
2023/05/11 10:50:09;;;;;;;2.20;1.33;;;16.50;99.30;;;;;;10437933;28;20090;-67
2023/05/11 10:55:21;;;;;;;2.42;1.10;;;16.50;99.60;;;;;;10435729;28;20181;-65
2023/05/11 11:01:08;;;;;;;1.63;0.88;;;16.40;99.50;;;;;;10426128;28;20012;-65
2023/05/11 11:06:22;;;;;;;3.57;1.10;;;16.40;99.70;;;;;;10434660;28;20564;-65
2023/05/11 11:11:30;;;;;;;3.83;1.85;;;16.50;99.60;;;;;;10437153;28;20077;-66
2023/05/11 11:16:32;;;;;;;1.80;1.17;;;16.50;99.60;;;;;;10431151;28;20052;-65
2023/05/11 11:21:40;;;;;;;2.30;1.10;;;16.60;99.60;;;;;;10437493;28;20295;-65
2023/05/11 11:26:46;;;;;;;;;;;16.60;99.60;;;;;;10429194;28;20039;-65
2023/05/11 11:31:46;;;;;;;2.67;1.02;;;16.60;99.80;;;;;;10440996;28;19965;-65
2023/05/11 11:37:05;;;;;;;6.18;1.85;;;16.70;99.50;;;;;;10433939;28;20017;-66
2023/05/11 11:42:09;;;;;;;;;;;16.70;99.60;;;;;;10426209;28;20086;-65
2023/05/11 11:47:21;;;;;;;3.35;1.13;;;16.80;99.90;;;;;;10431113;28;19920;-65
2023/05/11 11:52:28;;;;;;;4.60;1.40;;;16.80;99.60;;;;;;10443681;28;20370;-65
2023/05/11 11:57:28;;;;;;;5.32;1.42;;;16.90;99.60;;;;;;10443009;28;20336;-65
2023/05/11 12:02:30;;;;;;;3.70;1.30;;;16.90;99.60;;;;;;10439849;28;20040;-65
2023/05/11 12:07:33;;;;;;;3.97;1.40;;;16.90;99.70;;;;;;10444346;28;20119;-67
2023/05/11 12:12:36;;;;;;;3.40;1.10;;;16.90;99.80;;;;;;10444306;28;20507;-65
2023/05/11 12:17:37;;;;;;;5.65;1.00;;;16.80;99.80;;;;;;10439697;28;20524;-66
2023/05/11 12:22:38;;;;;;;5.32;1.48;;;16.80;99.90;;;;;;10448345;28;20032;-65
2023/05/11 12:28:11;;;;;;;4.13;1.27;;;16.80;99.90;;;;;;10443527;28;20684;-65
2023/05/11 12:33:13;;;;;;;5.07;1.40;;;16.90;99.90;;;;;;10420314;28;20505;-65
2023/05/11 12:38:14;;;;;;;2.22;1.23;;;16.90;99.90;;;;;;10438101;28;20112;-65
2023/05/11 12:43:20;;;;;;;3.65;1.40;;;16.90;99.90;;;;;;10438708;28;20017;-65
2023/05/11 12:48:21;;;;;;;5.25;1.52;;;16.90;99.90;;;;;;10439016;28;20036;-65
2023/05/11 12:53:21;;;;;;;4.82;1.73;;;16.90;99.90;;;;;;10441513;28;20378;-65
2023/05/11 12:58:23;;;;;;;2.20;1.25;;;16.90;99.90;;;;;;10438707;28;20033;-65
2023/05/11 13:03:28;;;;;;;3.22;1.23;;;17.00;99.90;;;;;;10437352;28;20060;-65
2023/05/11 13:08:28;;;;;;;4.78;1.65;;;17.00;99.90;;;;;;10448342;28;20029;-65
2023/05/11 13:13:29;;;;;;;3.67;1.42;;;17.10;99.90;;;;;;10435536;28;20025;-65
2023/05/11 13:18:30;;;;;;;3.65;1.60;;;17.10;99.90;;;;;;10435661;28;20036;-66
2023/05/11 13:23:30;;;;;;;4.30;1.20;;;17.10;99.90;;;;;;10438807;28;20044;-65
2023/05/11 13:28:32;;;;;;;3.78;1.33;;;17.10;99.90;;;;;;10439373;28;20021;-65
2023/05/11 13:33:33;;;;;;;7.43;2.75;;;17.20;99.90;;;;;;10443367;28;20025;-65
2023/05/11 13:38:34;;;;;;;6.25;3.28;;;17.10;99.90;;;;;;10441013;28;20332;-65
2023/05/11 13:43:35;;;;;;;8.68;3.17;;;17.20;99.90;;;;;;10438294;28;20029;-65
2023/05/11 13:48:35;;;;;;;6.47;3.28;;;17.20;99.90;;;;;;10441814;28;20687;-66
2023/05/11 13:53:36;;;;;;;8.13;3.75;;;17.20;99.90;;;;;;10435903;28;20029;-65
2023/05/11 13:58:37;;;;;;;8.70;3.65;;;17.20;99.90;;;;;;10442996;28;20033;-66
2023/05/11 14:03:38;;;;;;;5.72;3.38;;;17.20;99.90;;;;;;10437604;28;20012;-66
2023/05/11 14:08:39;;;;;;;4.10;2.88;;;17.10;99.90;;;;;;10435920;28;20025;-65
2023/05/11 14:13:39;;;;;;;6.85;3.10;;;17.10;99.90;;;;;;10436663;28;20055;-65
2023/05/11 14:18:40;;;;;;;5.00;2.88;;;17.10;99.90;;;;;;10441216;28;20396;-67
2023/05/11 14:23:41;;;;;;;5.85;3.03;;;17.10;99.90;;;;;;10443377;28;20017;-66
2023/05/11 14:28:42;;;;;;;5.28;3.15;;;17.10;99.90;;;;;;10440791;28;20500;-67
2023/05/11 14:33:43;;;;;;;4.03;2.95;;;17.10;99.90;;;;;;10443907;28;20029;-66
2023/05/11 14:38:44;;;;;;;5.28;2.60;;;17.10;99.90;;;;;;10434670;28;20027;-67
2023/05/11 14:43:45;;;;;;;4.72;2.92;;;17.10;99.90;;;;;;10440589;28;20041;-65
2023/05/11 14:48:46;;;;;;;5.63;3.00;;;17.10;99.90;;;;;;10437915;28;20024;-66
2023/05/11 14:53:46;;;;;;;4.07;2.63;;;17.10;99.90;;;;;;10438172;28;20096;-65
2023/05/11 14:58:47;;;;;;;4.07;2.60;;;17.20;99.90;;;;;;10440155;28;20457;-67
2023/05/11 15:03:47;;;;;;;6.15;2.53;;;17.20;99.80;;;;;;10432132;28;20024;-67
2023/05/11 15:08:49;;;;;;;5.20;3.03;;;17.30;99.90;;;;;;10436760;28;20067;-64
2023/05/11 15:13:50;;;;;;;4.20;2.40;;;17.20;99.80;;;;;;10440546;28;20479;-64
2023/05/11 15:18:50;;;;;;;3.30;2.33;;;17.20;99.90;;;;;;10441424;28;20110;-63
2023/05/11 15:23:51;;;;;;;4.55;2.22;;;17.30;99.90;;;;;;10437622;28;20155;-64
2023/05/11 15:28:52;;;;;;;3.58;2.28;;;17.30;99.90;;;;;;10446215;28;20032;-64
2023/05/11 15:33:53;;;;;;;4.32;2.40;;;17.30;99.90;;;;;;10451533;28;20043;-64
2023/05/11 15:38:53;;;;;;;4.18;2.20;;;17.30;99.90;;;;;;10444674;28;20036;-64
2023/05/11 15:43:54;;;;;;;3.15;1.92;;;17.30;99.80;;;;;;10441633;28;20025;-65
2023/05/11 15:48:54;;;;;;;3.45;1.80;;;17.30;99.80;;;;;;10435913;28;20458;-66
2023/05/11 15:53:55;;;;;;;3.92;2.33;;;17.40;99.90;;;;;;10442700;28;20032;-68
2023/05/11 15:58:55;;;;;;;3.33;1.90;;;17.30;99.90;;;;;;10447021;28;20025;-68
2023/05/11 16:03:56;;;;;;;3.15;1.92;;;17.30;99.90;;;;;;10443274;28;20032;-66
2023/05/11 16:08:57;;;;;;;2.08;1.60;;;17.30;99.90;;;;;;10444247;28;20024;-68
2023/05/11 16:13:57;;;;;;;5.05;1.80;;;17.30;99.90;;;;;;10444680;28;20499;-66
2023/05/11 16:18:58;;;;;;;4.00;1.80;;;17.30;99.90;;;;;;10446113;28;20598;-65
2023/05/11 16:23:59;;;;;;;3.67;1.85;;;17.30;99.90;;;;;;10451489;28;20100;-65
2023/05/11 16:28:59;;;;;;;2.38;1.63;;;17.30;99.90;;;;;;10448608;28;20025;-65
2023/05/11 16:34:00;;;;;;;1.98;1.58;;;17.30;99.90;;;;;;10442146;28;20424;-66
2023/05/11 16:39:01;;;;;;;4.97;1.58;;;17.30;99.90;;;;;;10436587;28;20033;-64
2023/05/11 16:44:01;;;;;;;4.10;2.15;;;17.20;99.90;;;;;;10443503;28;20040;-68
2023/05/11 16:49:02;;;;;;;3.95;2.08;;;17.10;99.50;;;;;;10441627;28;20028;-65
2023/05/11 16:54:03;;;;;;;4.50;1.90;;;16.90;99.70;;;;;;10437007;28;20059;-65
2023/05/11 16:59:03;;;;;;;5.47;2.08;;;16.90;99.80;;;;;;10442405;28;20036;-65
2023/05/11 17:04:04;;;;;;;2.88;1.70;;;16.90;99.70;;;;;;10445702;28;20393;-64
2023/05/11 17:09:05;;;;;;;4.13;2.05;;;17.00;99.70;;;;;;10435474;28;20020;-65
2023/05/11 17:14:05;;;;;;;2.97;1.90;;;16.90;99.70;;;;;;10438989;28;20123;-65
2023/05/11 17:19:07;;;;;;;3.38;1.80;;;17.00;99.70;;;;;;10435733;28;20112;-65
2023/05/11 17:24:07;;;;;;;2.80;1.85;;;17.00;99.70;;;;;;10435138;28;20032;-65
2023/05/11 17:29:08;;;;;;;2.60;1.50;;;17.00;99.70;;;;;;10443089;28;20025;-65
2023/05/11 17:34:09;;;;;;;5.95;1.75;;;17.00;99.70;;;;;;10440076;28;20451;-65
2023/05/11 17:39:10;;;;;;;1.95;1.42;;;17.00;99.80;;;;;;10437384;28;20028;-65
2023/05/11 17:44:11;;;;;;;4.25;1.85;;;16.90;99.80;;;;;;10438236;28;20481;-65
2023/05/11 17:49:13;;;;;;;3.17;1.73;;;16.90;99.80;;;;;;10440660;28;20021;-67
2023/05/11 17:54:13;;;;;;;2.67;1.67;;;16.90;99.80;;;;;;10440099;28;20090;-65
2023/05/11 17:59:17;;;;;;;4.40;1.95;;;16.90;99.90;;;;;;10433046;28;20108;-64
2023/05/11 18:04:17;;;;;;;4.32;2.80;;;16.90;99.90;;;;;;10441692;28;20116;-66
2023/05/11 18:09:18;;;;;;;4.97;1.98;;;16.90;99.90;;;;;;10442012;28;20021;-66
2023/05/11 18:14:22;;;;;;;2.40;1.70;;;16.80;99.90;;;;;;10428767;28;20041;-65
2023/05/11 18:19:22;;;;;;;3.58;2.17;;;16.70;99.90;;;;;;10440889;28;20105;-65
2023/05/11 18:24:23;;;;;;;4.82;2.20;;;16.70;99.90;;;;;;10442387;28;20043;-65
2023/05/11 18:29:24;;;;;;;4.78;1.90;;;16.70;99.90;;;;;;10437277;28;20033;-65
2023/05/11 18:34:26;;;;;;;2.78;2.30;;;16.70;99.90;;;;;;10444220;28;20045;-65
2023/05/11 18:39:27;;;;;;;5.38;3.00;;;16.70;99.90;;;;;;10436349;28;20032;-65
2023/05/11 18:44:28;;;;;;;4.60;2.60;;;16.70;99.90;;;;;;10438856;28;20031;-66
2023/05/11 18:49:28;;;;;;;3.88;1.95;;;16.70;99.90;;;;;;10444152;28;20037;-65
2023/05/11 18:54:29;;;;;;;2.40;2.03;;;16.70;99.90;;;;;;10438344;28;20112;-66
2023/05/11 18:59:30;;;;;;;3.97;2.00;;;16.70;99.90;;;;;;10442559;28;20400;-68
2023/05/11 19:04:30;;;;;;;3.20;1.67;;;16.60;99.90;;;;;;10441869;28;20727;-65
2023/05/11 19:09:31;;;;;;;3.20;1.85;;;16.60;99.90;;;;;;10443557;28;20021;-65
2023/05/11 19:14:33;;;;;;;2.75;1.58;;;16.60;99.90;;;;;;10441947;28;20033;-65
2023/05/11 19:19:34;;;;;;;2.55;2.00;;;16.60;99.90;;;;;;10438868;28;20091;-65
2023/05/11 19:24:36;;;;;;;3.25;2.05;;;16.50;99.90;;;;;;10442520;28;20024;-65
2023/05/11 19:29:36;;;;;;;4.45;2.90;;;16.50;99.90;;;;;;10436659;28;20662;-65
2023/05/11 19:34:37;;;;;;;3.70;2.50;;;16.50;99.90;;;;;;10433270;28;20031;-65
2023/05/11 19:39:37;;;;;;;2.92;2.38;;;16.50;99.90;;;;;;10441077;28;20038;-65
2023/05/11 19:44:42;;;;;;;3.15;2.47;;;16.40;99.90;;;;;;10445145;28;20047;-66
2023/05/11 19:49:42;;;;;;;2.58;2.20;;;16.40;99.90;;;;;;10446153;28;20029;-65
2023/05/11 19:54:43;;;;;;;3.90;2.55;;;16.30;99.90;;;;;;10435540;28;20033;-65
2023/05/11 19:59:43;;;;;;;4.82;2.95;;;16.40;99.90;;;;;;10437958;28;20535;-66
2023/05/11 20:04:45;;;;;;;5.20;3.08;;;16.40;99.90;;;;;;10439153;28;20492;-66
2023/05/11 20:09:46;;;;;;;3.28;2.97;;;16.30;99.90;;;;;;10436608;28;20075;-66
2023/05/11 20:14:46;;;;;;;3.85;2.85;;;16.30;99.90;;;;;;10437609;28;20091;-65
2023/05/11 20:19:47;;;;;;;4.95;2.90;;;15.60;99.90;;;;;;10438741;28;20029;-66
2023/05/11 20:24:47;;;;;;;3.33;2.60;;;16.30;99.90;;;;;;10446098;28;20032;-67
2023/05/11 20:29:48;;;;;;;3.85;2.85;;;16.20;99.90;;;;;;10445291;28;20025;-66
2023/05/11 20:34:52;;;;;;;4.63;2.95;;;16.20;99.90;;;;;;10440315;28;20035;-66
2023/05/11 20:39:52;;;;;;;4.10;2.95;;;16.20;99.90;;;;;;10439722;28;20090;-66
2023/05/11 20:44:53;;;;;;;5.80;2.97;;;16.20;99.90;;;;;;10442338;28;20374;-66
2023/05/11 20:49:54;;;;;;;4.88;3.30;;;16.20;99.90;;;;;;10449134;28;20049;-66
2023/05/11 20:54:54;;;;;;;3.70;2.80;;;16.10;99.90;;;;;;10447160;28;20133;-66
2023/05/11 20:59:55;;;;;;;5.45;3.00;;;16.10;99.90;;;;;;10444121;28;20397;-66
2023/05/11 21:05:00;;;;;;;5.18;3.38;;;16.10;99.90;;;;;;10440576;28;20264;-66
2023/05/11 21:10:01;;;;;;;5.30;3.22;;;16.00;99.90;;;;;;10437348;28;20446;-66
2023/05/11 21:15:02;;;;;;;6.05;3.55;;;16.00;99.90;;;;;;10439718;28;20035;-66
2023/05/11 21:20:03;;;;;;;3.70;2.85;;;16.00;99.90;;;;;;10436022;28;20159;-66
2023/05/11 21:25:05;;;;;;;3.88;2.60;;;16.00;99.90;;;;;;10435493;28;20381;-66
2023/05/11 21:30:06;;;;;;;4.18;2.53;;;16.00;99.90;;;;;;10439344;28;20029;-66
2023/05/11 21:35:07;;;;;;;5.05;2.67;;;16.00;99.90;;;;;;10435306;28;20032;-66
2023/05/11 21:40:08;;;;;;;3.97;2.65;;;15.90;99.90;;;;;;10440517;28;20040;-66
2023/05/11 21:45:10;;;;;;;5.25;3.25;;;15.90;99.90;;;;;;10429039;28;20049;-66
2023/05/11 21:50:11;;;;;;;3.70;2.55;;;15.90;99.90;;;;;;10434921;28;20025;-66
2023/05/11 21:55:12;;;;;;;5.20;2.83;;;15.90;99.90;;;;;;10433743;28;20033;-66
2023/05/11 22:00:16;;;;;;;5.18;2.85;;;15.80;99.90;;;;;;10439344;28;20412;-66
2023/05/11 22:05:17;;;;;;;5.10;2.85;;;15.80;99.90;;;;;;10437636;28;20111;-66
2023/05/11 22:10:17;;;;;;;3.92;2.60;;;15.90;99.90;;;;;;10437120;28;20030;-66
2023/05/11 22:15:21;;;;;;;3.38;2.22;;;15.80;99.90;;;;;;10432734;28;20033;-66
2023/05/11 22:20:21;;;;;;;3.78;2.50;;;15.80;99.90;;;;;;10434716;28;20031;-66
2023/05/11 22:25:22;;;;;;;4.70;2.40;;;15.80;99.90;;;;;;10436292;28;20575;-66
2023/05/11 22:30:23;;;;;;;3.90;2.47;;;15.80;99.90;;;;;;10427874;28;20020;-66
2023/05/11 22:35:23;;;;;;;3.88;2.40;;;15.70;99.90;;;;;;10429595;28;20079;-66
2023/05/11 22:40:24;;;;;;;3.35;2.25;;;15.70;99.90;;;;;;10438740;28;20043;-66
2023/05/11 22:45:25;;;;;;;3.70;2.00;;;15.70;99.90;;;;;;10434938;28;20039;-66
2023/05/11 22:50:25;;;;;;;3.00;2.00;;;15.70;99.90;;;;;;10437333;28;20083;-66
2023/05/11 22:55:26;;;;;;;2.83;2.05;;;15.60;99.90;;;;;;10428944;28;20234;-66
2023/05/11 23:00:27;;;;;;;3.08;2.00;;;15.70;99.90;;;;;;10432793;28;20148;-66
2023/05/11 23:05:28;;;;;;;2.72;1.70;;;15.70;99.90;;;;;;10431920;28;20025;-66
2023/05/11 23:10:29;;;;;;;3.35;2.10;;;15.60;99.90;;;;;;10435616;28;20025;-66
2023/05/11 23:15:30;;;;;;;2.78;1.80;;;15.70;99.90;;;;;;10435357;28;20460;-66
2023/05/11 23:20:31;;;;;;;3.72;2.10;;;15.60;99.90;;;;;;10437961;28;20120;-66
2023/05/11 23:25:32;;;;;;;2.40;1.70;;;15.60;99.90;;;;;;10435250;28;20027;-66
2023/05/11 23:30:32;;;;;;;3.55;1.58;;;15.60;99.90;;;;;;10430778;28;20061;-66
2023/05/11 23:35:33;;;;;;;3.15;1.92;;;15.50;99.90;;;;;;10448054;28;20451;-66
2023/05/11 23:40:33;;;;;;;3.28;1.83;;;15.50;99.90;;;;;;10433896;28;20436;-66
2023/05/11 23:45:34;;;;;;;4.30;1.85;;;15.50;99.90;;;;;;10430581;28;20035;-66
2023/05/11 23:50:34;;;;;;;2.70;1.85;;;15.50;99.90;;;;;;10441967;28;20500;-66
2023/05/11 23:55:36;;;;;;;3.35;1.95;;;15.50;99.90;;;;;;10441088;28;20030;-66
